< < Back
Terminal Aerodrome Forecast


Current Version              Previous Versions:   1  2  3  4  5  6  7  8  9  

Terminal Aerodrome Forecast

633
FTUS44 KMRX 290525
TAFCHA
TAF
KCHA 290525Z 2906/3006 00000KT P6SM SKC
     FM291500 17006KT P6SM SCT050
     FM300000 00000KT P6SM SCT250=

Latest METAR

402
SAUS80 KWBC 300200 RRA
MTRCHA
METAR KCHA 300153Z 00000KT 10SM FEW090 SCT150 BKN250 26/18 A3005 RMK AO2
SLP168 T02610178 $


USA.gov is the U.S. government's official web portal to all federal, state and local government web resources and services.